Time;durP1;ratioP1;P1;durP2;ratioP2;P2;SDS_P1;SDS_P2;PMS_P1;PMS_P2;Temp;Humidity;BMP_temperature;BMP_pressure;BME280_temperature;BME280_humidity;BME280_pressure;Samples;Min_cycle;Max_cycle;Signal;HPM_P1;HPM_P2
2023/05/16 00:03:48;;;;;;;10.63;9.37;;;;;;;15.91;54.50;99589.06;10423138;28;20236;-65
2023/05/16 00:08:50;;;;;;;10.27;9.17;;;;;;;15.86;53.68;99587.88;10431356;28;20331;-65
2023/05/16 00:13:52;;;;;;;13.03;9.87;;;;;;;14.44;55.66;99585.59;10423852;28;20228;-65
2023/05/16 00:18:53;;;;;;;10.90;9.07;;;;;;;14.51;54.08;99547.88;10427949;28;20236;-65
2023/05/16 00:23:55;;;;;;;10.23;9.27;;;;;;;12.59;58.61;99505.88;10426611;28;20808;-65
2023/05/16 00:28:57;;;;;;;11.43;9.70;;;;;;;13.32;56.60;99572.25;10424135;28;20270;-66
2023/05/16 00:33:58;;;;;;;10.97;9.30;;;;;;;13.51;55.35;99575.13;10426527;28;20251;-65
2023/05/16 00:39:00;;;;;;;11.40;9.80;;;;;;;15.18;53.91;99607.53;10426622;28;20319;-66
2023/05/16 00:44:01;;;;;;;9.70;8.80;;;;;;;15.17;53.23;99615.84;10426981;28;20887;-66
2023/05/16 00:49:03;;;;;;;12.17;9.43;;;;;;;15.55;52.10;99628.44;10428230;28;20235;-65
2023/05/16 00:54:06;;;;;;;13.13;10.13;;;;;;;14.09;54.65;99615.56;10424742;28;20655;-68
2023/05/16 00:59:07;;;;;;;11.10;9.70;;;;;;;13.95;54.62;99606.69;10421659;28;20316;-66
2023/05/16 01:04:09;;;;;;;14.13;9.77;;;;;;;13.56;55.54;99581.50;10425278;28;20239;-66
2023/05/16 01:09:12;;;;;;;11.00;9.90;;;;;;;12.96;56.28;99561.88;10421120;28;20726;-66
2023/05/16 01:14:25;;;;;;;11.47;10.33;;;;;;;13.48;56.42;99630.13;10430092;28;20240;-66
2023/05/16 01:19:33;;;;;;;14.17;11.70;;;;;;;11.87;59.22;99536.78;10425883;28;20236;-66
2023/05/16 01:25:09;;;;;;;13.20;11.77;;;;;;;13.09;57.03;99627.19;10422858;28;20243;-67
2023/05/16 01:30:16;;;;;;;12.67;11.57;;;;;;;13.95;55.51;99648.88;10426188;28;20733;-67
2023/05/16 01:35:18;;;;;;;15.10;13.50;;;;;;;12.48;56.98;99581.63;10422060;28;20208;-69
2023/05/16 01:40:32;;;;;;;18.23;14.90;;;;;;;12.61;56.77;99611.19;10424412;28;20235;-67
2023/05/16 01:45:37;;;;;;;18.17;15.73;;;;;;;12.96;56.35;99639.75;10419271;28;20250;-67
2023/05/16 01:50:53;;;;;;;18.83;15.37;;;;;;;12.69;57.04;99621.75;10423566;28;20236;-68
2023/05/16 01:56:01;;;;;;;20.30;17.23;;;;;;;12.00;58.42;99591.31;10428263;28;20230;-67
2023/05/16 02:01:04;;;;;;;20.10;17.50;;;;;;;12.62;56.95;99636.16;10420386;28;20246;-67
2023/05/16 02:06:06;;;;;;;23.00;18.50;;;;;;;12.23;57.84;99618.84;10430149;28;20259;-67
2023/05/16 02:11:08;;;;;;;23.37;18.53;;;;;;;11.94;57.86;99610.03;10425050;28;20232;-67
2023/05/16 02:16:10;;;;;;;23.10;18.30;;;;;;;13.56;55.03;99672.09;10428260;28;20250;-67
2023/05/16 02:21:12;;;;;;;22.30;19.37;;;;;;;12.03;57.12;99606.19;10423006;28;20286;-67
2023/05/16 02:26:13;;;;;;;21.93;18.93;;;;;;;11.99;57.85;99639.75;10426887;28;20224;-69
2023/05/16 02:31:28;;;;;;;21.87;19.57;;;;;;;11.71;57.18;99591.53;10424000;28;20242;-67
2023/05/16 02:36:30;;;;;;;22.03;19.20;;;;;;;12.22;57.08;99644.03;10421888;28;20228;-67
2023/05/16 02:41:32;;;;;;;22.37;19.80;;;;;;;11.79;58.16;99643.16;10423583;28;20235;-67
2023/05/16 02:46:34;;;;;;;20.97;18.43;;;;;;;11.22;58.40;99574.47;10423361;28;20249;-67
2023/05/16 02:51:36;;;;;;;21.80;19.40;;;;;;;12.35;56.79;99677.13;10426099;28;20236;-67
2023/05/16 02:56:38;;;;;;;21.67;18.17;;;;;;;11.91;57.61;99656.00;10426416;28;20231;-67
2023/05/16 03:01:39;;;;;;;23.33;19.37;;;;;;;12.20;57.85;99684.47;10422649;28;20266;-67
2023/05/16 03:06:41;;;;;;;24.70;19.60;;;;;;;11.86;57.94;99663.81;10422734;28;20251;-69
2023/05/16 03:11:43;;;;;;;21.83;19.27;;;;;;;11.73;58.07;99668.06;10422777;28;20232;-69
2023/05/16 03:16:44;;;;;;;22.50;17.73;;;;;;;11.40;57.81;99622.22;10426614;28;20235;-67
2023/05/16 03:21:46;;;;;;;21.77;18.20;;;;;;;11.74;58.02;99677.78;10422527;28;20240;-67
2023/05/16 03:26:48;;;;;;;20.33;18.13;;;;;;;12.26;56.63;99686.34;10422852;28;20285;-67
2023/05/16 03:31:50;;;;;;;19.87;17.73;;;;;;;12.42;55.97;99703.13;10420618;28;20239;-67
2023/05/16 03:36:52;;;;;;;19.30;16.93;;;;;;;12.16;57.06;99702.81;10425230;28;20234;-66
2023/05/16 03:41:56;;;;;;;21.50;17.40;;;;;;;12.34;56.12;99683.50;10423988;28;20237;-66
2023/05/16 03:46:57;;;;;;;20.77;17.80;;;;;;;11.41;57.20;99635.41;10422999;28;20243;-66
2023/05/16 03:51:59;;;;;;;20.30;17.67;;;;;;;12.62;56.23;99744.38;10424623;28;20263;-66
2023/05/16 03:57:02;;;;;;;19.93;17.47;;;;;;;13.04;55.47;99763.13;10415128;28;21151;-67
2023/05/16 04:02:05;;;;;;;19.43;16.90;;;;;;;12.03;56.65;99729.53;10414948;28;20587;-67
2023/05/16 04:07:07;;;;;;;21.10;16.87;;;;;;;12.62;56.16;99771.22;10422272;28;20228;-66
2023/05/16 04:12:09;;;;;;;19.53;17.13;;;;;;;11.36;58.50;99691.44;10425769;28;20232;-67
2023/05/16 04:17:11;;;;;;;18.73;16.40;;;;;;;11.51;57.86;99728.88;10429672;28;20232;-67
2023/05/16 04:22:13;;;;;;;18.53;16.23;;;;;;;11.62;58.46;99748.97;10431877;28;20952;-69
2023/05/16 04:27:14;;;;;;;19.57;16.83;;;;;;;12.05;56.62;99758.84;10429481;28;20794;-67
2023/05/16 04:32:17;;;;;;;19.83;16.07;;;;;;;12.07;57.06;99760.31;10429125;28;22427;-67
2023/05/16 04:37:19;;;;;;;19.27;15.80;;;;;;;11.51;57.94;99709.31;10431528;28;20255;-67
2023/05/16 04:42:21;;;;;;;20.20;15.77;;;;;;;12.89;56.16;99793.66;10431080;28;20236;-66
2023/05/16 04:47:22;;;;;;;18.83;15.90;;;;;;;12.17;56.83;99781.44;10424174;28;20232;-67
2023/05/16 04:52:24;;;;;;;18.67;15.13;;;;;;;13.02;55.10;99813.53;10429676;28;20223;-67
2023/05/16 04:57:26;;;;;;;17.87;15.03;;;;;;;12.24;56.25;99792.22;10428604;28;20235;-69
2023/05/16 05:02:28;;;;;;;18.97;14.87;;;;;;;12.62;55.43;99778.44;10425034;28;20244;-69
2023/05/16 05:07:30;;;;;;;17.33;15.13;;;;;;;12.25;56.18;99778.59;10428598;28;20231;-69
2023/05/16 05:12:31;;;;;;;18.40;15.27;;;;;;;12.55;56.29;99819.50;10427139;28;20321;-68
2023/05/16 05:17:33;;;;;;;18.67;15.57;;;;;;;11.93;57.03;99777.28;10420042;28;20233;-67
2023/05/16 05:22:35;;;;;;;15.57;13.93;;;;;;;11.69;57.00;99763.28;10428690;28;20745;-67
2023/05/16 05:27:37;;;;;;;19.20;15.47;;;;;;;12.02;56.27;99794.91;10424115;28;20231;-67
2023/05/16 05:32:38;;;;;;;17.90;14.77;;;;;;;12.50;55.52;99800.47;10425099;28;20239;-68
2023/05/16 05:37:40;;;;;;;15.47;13.20;;;;;;;12.21;56.60;99824.78;10421068;28;20283;-66
2023/05/16 05:42:42;;;;;;;17.43;12.90;;;;;;;13.16;53.40;99809.06;10427496;28;20271;-68
2023/05/16 05:47:47;;;;;;;14.40;12.83;;;;;;;14.32;52.20;99889.59;10420610;28;20236;-66
2023/05/16 05:52:49;;;;;;;16.43;13.77;;;;;;;12.76;55.20;99825.00;10426231;28;20955;-67
2023/05/16 05:57:50;;;;;;;17.17;14.17;;;;;;;12.66;55.33;99828.03;10424289;28;20319;-67
2023/05/16 06:02:52;;;;;;;15.97;13.17;;;;;;;13.79;53.41;99873.38;10425356;28;20247;-68
2023/05/16 06:07:54;;;;;;;17.00;14.20;;;;;;;14.07;53.02;99885.88;10419675;28;20263;-69
2023/05/16 06:12:55;;;;;;;14.90;12.97;;;;;;;13.08;53.46;99794.78;10423856;28;20232;-69
2023/05/16 06:17:58;;;;;;;15.77;13.40;;;;;;;13.90;53.43;99862.00;10421365;28;20240;-68
2023/05/16 06:23:00;;;;;;;19.23;15.80;;;;;;;12.89;55.00;99825.03;10425263;28;20346;-68
2023/05/16 06:28:02;;;;;;;17.77;15.77;;;;;;;12.84;56.35;99855.19;10417807;28;20239;-68
2023/05/16 06:33:03;;;;;;;20.80;14.73;;;;;;;13.06;55.71;99860.50;10423126;28;20235;-66
2023/05/16 06:38:05;;;;;;;16.10;13.63;;;;;;;12.17;56.31;99789.47;10424008;28;20236;-68
2023/05/16 06:43:06;;;;;;;17.43;14.37;;;;;;;12.76;56.22;99835.75;10421937;28;20227;-66
2023/05/16 06:48:08;;;;;;;17.93;14.77;;;;;;;12.73;55.65;99821.66;10418664;28;20822;-66
2023/05/16 06:53:10;;;;;;;16.90;13.80;;;;;;;13.29;55.21;99874.47;10423190;28;20319;-68
2023/05/16 06:58:12;;;;;;;15.27;12.90;;;;;;;12.51;55.91;99822.78;10420873;28;20807;-66
2023/05/16 07:03:14;;;;;;;15.57;12.07;;;;;;;14.07;53.59;99915.47;10421370;28;20243;-66
2023/05/16 07:08:16;;;;;;;15.33;12.80;;;;;;;14.00;53.85;99915.41;10422271;28;20633;-67
2023/05/16 07:13:17;;;;;;;15.57;12.87;;;;;;;12.85;54.57;99821.94;10420875;28;20229;-67
2023/05/16 07:18:19;;;;;;;15.27;11.60;;;;;;;13.65;54.39;99885.97;10424840;28;20314;-67
2023/05/16 07:23:21;;;;;;;14.80;12.77;;;;;;;12.86;55.43;99842.41;10436599;22;20236;-39
2023/05/16 07:28:23;;;;;;;13.53;11.37;;;;;;;14.67;52.54;99937.03;10432715;28;20298;-39
2023/05/16 07:33:26;;;;;;;15.73;12.03;;;;;;;14.00;54.35;99907.34;10428946;28;20224;-39
2023/05/16 07:38:27;;;;;;;12.93;10.90;;;;;;;13.75;54.67;99896.31;10430177;28;20709;-42
2023/05/16 07:43:29;;;;;;;11.80;9.87;;;;;;;14.00;54.40;99918.09;10432606;28;20260;-41
2023/05/16 07:48:31;;;;;;;9.97;7.67;;;;;;;14.40;53.05;99934.34;10437304;28;20319;-40
2023/05/16 07:53:33;;;;;;;5.90;5.10;;;;;;;12.78;55.89;99887.38;10436343;28;21106;-40
2023/05/16 07:58:35;;;;;;;4.93;4.13;;;;;;;11.89;55.62;99800.16;10436557;28;20797;-40
2023/05/16 08:03:37;;;;;;;4.13;3.60;;;;;;;11.53;56.61;99788.47;10435709;28;20232;-39
2023/05/16 08:08:39;;;;;;;4.27;3.40;;;;;;;11.09;56.35;99741.22;10437497;28;20916;-40
2023/05/16 08:13:41;;;;;;;3.03;2.73;;;;;;;12.28;54.22;99872.13;10437440;28;20278;-42
2023/05/16 08:18:43;;;;;;;2.97;2.77;;;;;;;11.35;56.67;99849.69;10434702;28;20232;-40
2023/05/16 08:23:45;;;;;;;3.00;2.60;;;;;;;11.45;55.32;99855.56;10432344;28;20597;-38
2023/05/16 08:28:46;;;;;;;4.20;2.40;;;;;;;11.87;54.73;99902.25;10435610;28;20906;-40
2023/05/16 08:33:48;;;;;;;2.13;2.00;;;;;;;11.17;55.18;99826.81;10433491;28;20228;-40
2023/05/16 08:38:50;;;;;;;1.90;1.80;;;;;;;10.71;55.34;99794.88;10434061;28;20243;-40
2023/05/16 08:43:51;;;;;;;3.17;2.20;;;;;;;11.00;54.45;99842.25;10435789;28;20227;-40
2023/05/16 08:49:00;;;;;;;2.00;1.80;;;;;;;10.43;55.87;99798.19;10435071;28;20315;-40
2023/05/16 08:54:05;;;;;;;1.90;1.80;;;;;;;11.72;54.22;99921.06;10434163;28;20238;-40
2023/05/16 08:59:07;;;;;;;2.03;1.93;;;;;;;11.56;53.72;99907.88;10431112;28;20743;-39
2023/05/16 09:04:09;;;;;;;1.73;1.63;;;;;;;11.56;53.36;99899.81;10433038;28;20594;-40
2023/05/16 09:09:11;;;;;;;1.97;1.87;;;;;;;11.26;53.71;99873.88;10431505;28;20697;-40
2023/05/16 09:14:13;;;;;;;2.00;1.90;;;;;;;10.50;53.92;99798.28;10432550;28;20700;-40
2023/05/16 09:19:15;;;;;;;2.03;1.93;;;;;;;10.31;55.00;99810.38;10434917;28;20239;-40
2023/05/16 09:24:25;;;;;;;2.70;2.50;;;;;;;11.47;53.17;99911.66;10432866;28;20231;-40
2023/05/16 09:29:26;;;;;;;3.53;1.90;;;;;;;10.55;54.35;99846.72;10429271;28;20286;-40
2023/05/16 09:34:28;;;;;;;1.90;1.70;;;;;;;10.86;53.95;99900.13;10436149;28;20265;-38
2023/05/16 09:39:30;;;;;;;1.80;1.70;;;;;;;9.83;55.26;99799.91;10433261;28;20272;-41
2023/05/16 09:44:32;;;;;;;2.60;1.93;;;;;;;10.88;54.29;99932.06;10433355;28;20230;-38
2023/05/16 09:49:36;;;;;;;2.10;2.00;;;;;;;10.11;55.12;99858.16;10432277;28;20231;-38
2023/05/16 09:54:38;;;;;;;2.00;1.90;;;;;;;11.13;54.21;99969.31;10429830;28;20220;-40
2023/05/16 09:59:40;;;;;;;1.53;1.53;;;;;;;10.56;55.01;99928.66;10429876;28;20326;-38
2023/05/16 10:04:42;;;;;;;1.63;1.60;;;;;;;10.87;54.37;99958.00;10432290;28;20235;-40
2023/05/16 10:09:45;;;;;;;2.20;1.40;;;;;;;10.20;55.69;99899.88;10425444;28;20728;-39
2023/05/16 10:14:49;;;;;;;1.90;1.80;;;;;;;10.31;54.94;99901.31;10431821;28;20255;-40
2023/05/16 10:19:53;;;;;;;1.60;1.50;;;;;;;11.04;54.64;99982.78;10428413;28;20290;-40
2023/05/16 10:25:25;;;;;;;1.70;1.60;;;;;;;10.55;54.72;99947.59;10431377;28;20259;-39
2023/05/16 10:30:28;;;;;;;1.67;1.57;;;;;;;10.64;54.13;99928.56;10428935;28;20393;-39
2023/05/16 10:35:31;;;;;;;1.83;1.53;;;;;;;10.14;55.00;99903.25;10431121;28;20208;-40
2023/05/16 10:40:34;;;;;;;1.90;1.80;;;;;;;9.94;55.44;99882.34;10426506;28;20258;-39
2023/05/16 10:45:40;;;;;;;1.60;1.50;;;;;;;10.58;54.05;99942.69;10430448;28;20235;-39
2023/05/16 10:50:44;;;;;;;1.70;1.60;;;;;;;10.54;53.96;99935.22;10428725;28;20240;-39
2023/05/16 10:55:52;;;;;;;2.40;1.50;;;;;;;11.24;53.23;99987.63;10428623;28;20242;-40
2023/05/16 11:06:39;;;;;;;2.07;1.97;;;;;;;9.61;57.59;100025.13;10456974;28;20855;-74
2023/05/16 11:12:05;;;;;;;1.80;1.70;;;;;;;9.89;56.71;100047.78;10441740;28;20237;-73
2023/05/16 11:17:22;;;;;;;1.57;1.47;;;;;;;9.54;57.10;100041.00;10433386;28;20354;-71
2023/05/16 11:22:27;;;;;;;1.50;1.40;;;;;;;8.95;57.05;99966.53;10438273;28;20239;-70
2023/05/16 11:27:35;;;;;;;1.57;1.47;;;;;;;9.03;56.93;99990.56;10435618;28;20255;-72
2023/05/16 11:32:38;;;;;;;3.87;1.70;;;;;;;9.90;56.71;100065.47;10437231;28;20294;-71
2023/05/16 11:37:41;;;;;;;1.87;1.77;;;;;;;9.56;56.08;100030.97;10436833;28;20251;-75
2023/05/16 11:42:47;;;;;;;1.80;1.70;;;;;;;8.87;56.80;99953.22;10434067;28;20228;-74
2023/05/16 11:47:49;;;;;;;1.60;1.50;;;;;;;9.81;55.15;100054.97;10429269;28;20224;-72
2023/05/16 11:52:52;;;;;;;2.50;2.30;;;;;;;9.59;54.97;100039.50;10435853;28;20262;-75
2023/05/16 11:57:57;;;;;;;3.63;2.20;;;;;;;10.69;54.37;100131.44;10436167;28;20220;-75
2023/05/16 12:03:03;;;;;;;1.67;1.57;;;;;;;10.93;54.22;100132.34;10437230;28;20227;-75
2023/05/16 12:08:05;;;;;;;2.00;1.90;;;;;;;10.69;53.53;100118.06;10436254;28;20254;-75
2023/05/16 12:13:07;;;;;;;2.47;2.07;;;;;;;10.88;52.54;100120.31;10433199;28;20223;-74
2023/05/16 12:18:10;;;;;;;2.03;1.90;;;;;;;10.14;53.72;100106.47;10402739;28;20301;-75
2023/05/16 12:23:13;;;;;;;2.10;1.70;;;;;;;10.13;54.54;100118.19;10408594;28;20865;-75
2023/05/16 12:28:15;;;;;;;5.63;2.70;;;;;;;11.01;52.95;100143.81;10410283;28;20327;-72
2023/05/16 12:33:17;;;;;;;5.03;2.30;;;;;;;10.47;53.21;100136.59;10407065;28;20228;-72
2023/05/16 12:38:19;;;;;;;2.63;2.43;;;;;;;9.56;54.18;100079.91;10400823;28;20224;-75
2023/05/16 12:43:22;;;;;;;6.23;2.47;;;;;;;9.61;53.85;100076.72;10416588;28;20726;-72
2023/05/16 12:48:32;;;;;;;3.20;2.87;;;;;;;10.10;54.24;100147.94;10406234;28;20232;-73
2023/05/16 12:53:40;;;;;;;4.97;3.00;;;;;;;11.21;51.90;100200.41;10405633;28;20734;-73
2023/05/16 12:58:42;;;;;;;4.43;2.80;;;;;;;9.43;54.08;100098.28;10404955;28;20228;-75
2023/05/16 13:03:44;;;;;;;5.87;2.87;;;;;;;9.69;53.31;100135.50;10409245;28;20235;-75
2023/05/16 13:08:46;;;;;;;4.70;2.90;;;;;;;9.31;54.01;100099.66;10409649;28;20231;-72
2023/05/16 13:13:48;;;;;;;4.53;2.70;;;;;;;9.01;53.71;100052.13;10401050;28;21043;-72
2023/05/16 13:18:51;;;;;;;6.70;3.27;;;;;;;9.84;52.85;100175.75;10411929;28;20260;-70
2023/05/16 13:23:52;;;;;;;5.40;2.90;;;;;;;9.31;52.12;100105.81;10416308;23;20295;-37
2023/05/16 13:28:54;;;;;;;5.93;3.20;;;;;;;10.03;51.44;100192.44;10386392;28;20256;-35
2023/05/16 13:33:56;;;;;;;5.93;2.37;;;;;;;9.55;49.82;100138.84;10383413;28;20229;-35
2023/05/16 13:38:57;;;;;;;4.30;2.90;;;;;;;10.08;50.07;100204.28;10407188;23;20699;-37
2023/05/16 13:43:59;;;;;;;5.93;2.67;;;;;;;11.33;48.21;100259.78;10405274;28;20232;-36
2023/05/16 13:49:01;;;;;;;7.70;3.07;;;;;;;11.02;47.67;100235.72;10402671;28;20239;-36
2023/05/16 13:54:02;;;;;;;5.73;2.63;;;;;;;9.96;49.85;100181.59;10407258;28;20243;-36
2023/05/16 13:59:04;;;;;;;5.97;2.87;;;;;;;10.18;48.62;100185.38;10398550;28;20354;-37
2023/05/16 14:04:08;;;;;;;6.27;2.73;;;;;;;9.81;47.72;100148.50;10401880;28;20326;-36
2023/05/16 14:09:12;;;;;;;7.53;2.93;;;;;;;10.15;48.02;100189.19;10402949;28;20607;-36
2023/05/16 14:14:13;;;;;;;5.23;2.37;;;;;;;10.75;45.97;100199.53;10401723;28;20726;-37
2023/05/16 14:19:15;;;;;;;5.23;2.20;;;;;;;11.96;45.60;100275.72;10399019;28;20228;-37
2023/05/16 14:24:20;;;;;;;6.73;2.47;;;;;;;11.67;45.93;100226.38;10399360;28;20224;-35
2023/05/16 14:29:23;;;;;;;5.33;2.70;;;;;;;10.29;46.07;100168.94;10396205;28;20278;-35
2023/05/16 14:34:25;;;;;;;4.47;2.50;;;;;;;11.52;45.68;100226.28;10397182;28;20228;-36
2023/05/16 14:39:27;;;;;;;6.40;2.77;;;;;;;11.65;45.66;100224.91;10394653;28;20363;-35
2023/05/16 14:44:28;;;;;;;5.83;2.60;;;;;;;12.47;44.07;100269.72;10401517;28;20321;-36
2023/05/16 14:49:31;;;;;;;5.77;2.00;;;;;;;13.28;44.47;100234.78;10386033;28;20251;-37
2023/05/16 14:54:32;;;;;;;6.00;2.40;;;;;;;12.72;45.13;100205.81;10381624;28;20701;-36
2023/05/16 14:59:34;;;;;;;3.70;2.00;;;;;;;11.77;45.22;100167.16;10377964;28;20333;-35
2023/05/16 15:04:36;;;;;;;4.30;2.40;;;;;;;13.18;43.98;100224.31;10375719;28;20244;-36
2023/05/16 15:09:38;;;;;;;4.30;2.20;;;;;;;13.32;43.41;100232.53;10381435;28;20745;-36
2023/05/16 15:14:39;;;;;;;6.17;2.63;;;;;;;12.85;43.53;100192.53;10379993;28;20234;-36
2023/05/16 15:19:41;;;;;;;5.53;2.03;;;;;;;13.17;43.77;100165.38;10377068;28;20268;-36
2023/05/16 15:24:43;;;;;;;3.63;1.90;;;;;;;13.29;43.04;100151.28;10378822;28;20342;-35
2023/05/16 15:29:44;;;;;;;8.03;2.07;;;;;;;13.02;43.29;100125.16;10380496;28;20240;-38
2023/05/16 15:34:46;;;;;;;9.60;2.17;;;;;;;14.07;42.02;100163.88;10381738;28;20253;-36
2023/05/16 15:39:48;;;;;;;4.40;1.70;;;;;;;14.17;41.83;100150.88;10379112;28;20241;-36
2023/05/16 15:44:49;;;;;;;6.03;2.73;;;;;;;13.50;42.93;100111.94;10378296;28;20507;-37
2023/05/16 15:49:51;;;;;;;5.13;2.40;;;;;;;13.22;43.39;100088.53;10379276;28;20275;-36
2023/05/16 15:54:53;;;;;;;9.93;2.30;;;;;;;14.15;42.45;100109.03;10386206;28;20227;-36
2023/05/16 15:59:55;;;;;;;6.67;3.97;;;;;;;13.24;42.26;100043.47;10405830;28;20601;-35
2023/05/16 16:04:57;;;;;;;5.70;2.83;;;;;;;13.45;42.43;100076.75;10399828;28;20284;-36
2023/05/16 16:09:59;;;;;;;8.53;2.23;;;;;;;13.69;42.13;100082.69;10395812;28;20229;-36
2023/05/16 16:15:01;;;;;;;6.83;2.27;;;;;;;14.27;40.03;100107.41;10396888;28;20311;-36
2023/05/16 16:20:03;;;;;;;6.23;1.80;;;;;;;12.62;38.11;100012.84;10403750;28;20327;-36
2023/05/16 16:25:05;;;;;;;3.17;2.13;;;;;;;13.16;38.36;100064.28;10399764;28;20306;-36
2023/05/16 16:30:08;;;;;;;6.17;1.93;;;;;;;13.03;37.19;100043.53;10402601;28;20587;-37
2023/05/16 16:35:10;;;;;;;4.83;1.73;;;;;;;13.90;37.27;100116.72;10405161;28;20247;-37
2023/05/16 16:40:12;;;;;;;3.87;2.07;;;;;;;13.35;37.01;100092.41;10403975;28;20243;-36
2023/05/16 16:45:14;;;;;;;4.30;1.90;;;;;;;13.19;37.25;100091.59;10398442;28;20230;-36
2023/05/16 16:50:15;;;;;;;3.97;1.70;;;;;;;13.04;38.02;100054.09;10380674;28;20762;-38
2023/05/16 16:55:17;;;;;;;4.00;2.17;;;;;;;12.07;37.85;99958.78;10391716;28;20204;-38
2023/05/16 17:00:19;;;;;;;5.07;1.70;;;;;;;12.72;38.03;100056.28;10396309;28;20229;-38
2023/05/16 17:05:21;;;;;;;4.97;2.17;;;;;;;13.63;37.72;100103.97;10398803;28;20748;-36
2023/05/16 17:10:23;;;;;;;3.17;1.87;;;;;;;14.04;37.45;100111.22;10400972;28;20234;-37
2023/05/16 17:15:24;;;;;;;5.00;2.13;;;;;;;13.17;38.45;100084.78;10398207;28;20247;-36
2023/05/16 17:20:27;;;;;;;2.53;1.87;;;;;;;12.25;37.96;100011.16;10404020;28;20231;-37
2023/05/16 17:25:28;;;;;;;5.30;1.97;;;;;;;11.99;37.84;99980.34;10395398;28;20724;-38
2023/05/16 17:30:31;;;;;;;3.73;2.00;;;;;;;12.85;37.32;100071.69;10412365;28;20247;-38
2023/05/16 17:35:33;;;;;;;4.33;2.40;;;;;;;13.23;36.90;100095.56;10395313;28;20232;-36
2023/05/16 17:40:34;;;;;;;3.70;2.43;;;;;;;13.39;36.58;100102.53;10395212;28;20326;-38
2023/05/16 17:45:37;;;;;;;2.93;1.83;;;;;;;12.92;37.49;100077.97;10394906;28;20275;-36
2023/05/16 17:50:39;;;;;;;6.50;1.97;;;;;;;13.56;36.70;100104.94;10387955;28;21814;-35
2023/05/16 17:55:41;;;;;;;3.47;1.80;;;;;;;12.67;36.91;100055.19;10394993;28;20759;-36
2023/05/16 18:00:45;;;;;;;3.63;2.00;;;;;;;12.05;36.90;100003.75;10399575;28;20371;-36
2023/05/16 18:05:48;;;;;;;3.67;2.40;;;;;;;12.63;37.10;100078.91;10397628;28;20243;-36
2023/05/16 18:10:50;;;;;;;2.70;1.90;;;;;;;11.97;37.65;99998.50;10395220;28;21348;-36
2023/05/16 18:15:53;;;;;;;4.73;2.30;;;;;;;11.68;37.93;99964.53;10394146;28;20318;-36
2023/05/16 18:20:54;;;;;;;3.90;1.97;;;;;;;12.23;37.07;100029.31;10394985;28;20312;-36
2023/05/16 18:25:56;;;;;;;3.30;1.90;;;;;;;11.70;37.26;99967.84;10393250;28;20608;-35
2023/05/16 18:30:58;;;;;;;3.63;2.03;;;;;;;12.31;37.53;100054.16;10395392;28;20731;-36
2023/05/16 18:35:59;;;;;;;2.60;1.67;;;;;;;12.37;37.83;100055.28;10398056;28;20288;-36
2023/05/16 18:41:01;;;;;;;3.83;2.17;;;;;;;12.49;37.30;100080.63;10394070;28;20707;-36
2023/05/16 18:46:03;;;;;;;4.00;1.90;;;;;;;11.45;38.13;99941.31;10392328;28;20705;-36
2023/05/16 18:51:05;;;;;;;3.87;2.10;;;;;;;11.37;38.30;99957.47;10400062;28;20243;-36
2023/05/16 18:56:07;;;;;;;4.33;1.80;;;;;;;11.64;38.59;100004.25;10398174;28;20241;-36
2023/05/16 19:01:09;;;;;;;6.60;1.97;;;;;;;12.28;37.64;100097.50;10392299;28;20327;-38
2023/05/16 19:06:10;;;;;;;6.13;2.10;;;;;;;11.61;37.98;100029.56;10399032;28;20269;-36
2023/05/16 19:11:12;;;;;;;5.50;2.63;;;;;;;11.72;38.15;100043.53;10396837;28;20274;-37
2023/05/16 19:16:14;;;;;;;2.77;1.80;;;;;;;12.29;37.77;100117.94;10396902;28;20234;-37
2023/05/16 19:21:16;;;;;;;3.87;1.70;;;;;;;12.17;38.02;100104.16;10398015;28;20663;-36
2023/05/16 19:26:18;;;;;;;4.23;1.90;;;;;;;12.49;38.52;100125.44;10399370;28;20277;-37
2023/05/16 19:31:19;;;;;;;2.40;1.60;;;;;;;12.62;38.23;100141.69;10406151;28;20391;-36
2023/05/16 19:36:21;;;;;;;2.43;1.37;;;;;;;11.93;39.47;100101.78;10402212;28;20228;-37
2023/05/16 19:41:23;;;;;;;4.60;1.90;;;;;;;12.64;38.36;100144.19;10404223;28;20783;-36
2023/05/16 19:46:25;;;;;;;3.73;1.80;;;;;;;11.86;38.93;100117.78;10406691;28;20283;-36
2023/05/16 19:51:26;;;;;;;3.27;1.80;;;;;;;11.56;39.88;100079.38;10397764;28;20208;-36
2023/05/16 19:56:42;;;;;;;5.70;2.00;;;;;;;11.42;39.97;100076.50;10409812;28;20251;-36
2023/05/16 20:01:44;;;;;;;2.53;2.07;;;;;;;11.33;40.27;100079.44;10406280;28;20232;-37
2023/05/16 20:06:46;;;;;;;1.97;1.60;;;;;;;10.39;42.45;100005.53;10401990;28;20773;-36
2023/05/16 20:11:48;;;;;;;2.43;1.77;;;;;;;10.23;42.41;99995.78;10404624;28;20284;-37
2023/05/16 20:16:50;;;;;;;2.00;1.83;;;;;;;10.86;42.22;100076.81;10408661;28;20902;-37
2023/05/16 20:21:52;;;;;;;3.93;2.27;;;;;;;10.44;43.17;100043.28;10407820;28;20252;-36
2023/05/16 20:26:53;;;;;;;3.67;2.23;;;;;;;10.00;42.92;99995.75;10396538;28;20236;-36
2023/05/16 20:31:55;;;;;;;5.53;1.90;;;;;;;9.80;43.20;99999.84;10399414;28;20255;-37
2023/05/16 20:36:57;;;;;;;2.40;2.00;;;;;;;10.42;42.82;100056.00;10405419;28;20251;-37
2023/05/16 20:41:59;;;;;;;2.70;2.23;;;;;;;9.91;43.30;100019.03;10407556;28;20315;-37
2023/05/16 20:47:01;;;;;;;2.47;2.00;;;;;;;10.30;43.14;100060.94;10399607;28;20233;-37
2023/05/16 20:52:03;;;;;;;2.63;2.07;;;;;;;10.04;43.81;100041.69;10401921;28;20210;-36
2023/05/16 20:57:06;;;;;;;2.70;1.97;;;;;;;10.34;43.67;100072.09;10400813;28;20263;-36
2023/05/16 21:02:09;;;;;;;2.30;2.10;;;;;;;9.58;44.51;100008.44;10399907;28;20828;-37
2023/05/16 21:07:10;;;;;;;4.53;2.30;;;;;;;10.35;43.79;100068.44;10403502;28;20705;-37
2023/05/16 21:12:13;;;;;;;2.83;2.10;;;;;;;9.86;44.51;100036.59;10410248;28;20232;-36
2023/05/16 21:17:17;;;;;;;2.87;1.90;;;;;;;10.21;44.38;100072.69;10403439;28;20244;-36
2023/05/16 21:22:19;;;;;;;3.23;1.90;;;;;;;10.05;44.42;100062.06;10403389;28;20208;-36
2023/05/16 21:27:21;;;;;;;4.23;2.40;;;;;;;10.10;44.33;100068.56;10403358;28;20555;-37
2023/05/16 21:32:22;;;;;;;4.67;2.33;;;;;;;9.76;44.50;100042.13;10402153;28;20225;-36
2023/05/16 21:37:24;;;;;;;3.60;1.97;;;;;;;10.13;44.13;100078.91;10403068;28;20260;-37
2023/05/16 21:42:26;;;;;;;2.70;1.93;;;;;;;10.29;44.24;100096.72;10403038;28;20228;-36
2023/05/16 21:47:27;;;;;;;4.67;2.10;;;;;;;9.14;44.70;100021.41;10401272;28;20667;-36
2023/05/16 21:52:29;;;;;;;3.60;2.00;;;;;;;9.26;44.75;100027.22;10407872;28;20322;-36
2023/05/16 21:57:31;;;;;;;2.30;2.10;;;;;;;9.44;44.18;100049.22;10404112;28;20244;-37
2023/05/16 22:02:33;;;;;;;2.93;2.03;;;;;;;9.96;44.10;100096.84;10404088;28;20307;-37
2023/05/16 22:07:36;;;;;;;5.33;2.60;;;;;;;9.23;44.90;100047.09;10394849;28;20240;-37
2023/05/16 22:12:38;;;;;;;3.47;2.80;;;;;;;9.51;44.71;100065.41;10396448;28;20227;-37
2023/05/16 22:17:40;;;;;;;3.77;2.40;;;;;;;9.11;45.48;100053.78;10392266;28;20232;-36
2023/05/16 22:22:43;;;;;;;3.53;1.90;;;;;;;9.01;45.61;100051.25;10394429;28;20234;-37
2023/05/16 22:27:45;;;;;;;3.93;2.10;;;;;;;10.16;44.10;100117.84;10392272;28;20930;-36
2023/05/16 22:32:46;;;;;;;2.87;1.90;;;;;;;9.67;44.96;100100.09;10392820;28;20240;-37
2023/05/16 22:37:48;;;;;;;4.43;2.60;;;;;;;8.95;45.90;100049.28;10393370;28;20248;-37
2023/05/16 22:42:50;;;;;;;3.53;2.80;;;;;;;8.87;46.80;100065.28;10393250;28;20326;-36
2023/05/16 22:47:52;;;;;;;2.40;2.10;;;;;;;8.83;46.76;100057.59;10390793;28;20250;-36
2023/05/16 22:52:53;;;;;;;4.40;2.30;;;;;;;8.70;47.32;100057.25;10389433;28;20882;-37
2023/05/16 22:57:58;;;;;;;4.70;2.40;;;;;;;8.53;47.57;100045.72;10388906;28;20663;-36
2023/05/16 23:03:00;;;;;;;5.17;2.60;;;;;;;8.91;47.60;100069.28;10386920;28;20232;-36
2023/05/16 23:08:03;;;;;;;2.60;2.33;;;;;;;8.66;47.19;100059.41;10392884;28;20243;-37
2023/05/16 23:13:04;;;;;;;4.60;2.37;;;;;;;9.09;46.91;100095.81;10393076;28;20242;-37
2023/05/16 23:18:06;;;;;;;5.90;2.37;;;;;;;9.69;45.87;100129.31;10396784;28;20348;-37